Time;durP1;ratioP1;P1;durP2;ratioP2;P2;SDS_P1;SDS_P2;PMS_P1;PMS_P2;Temp;Humidity;BMP_temperature;BMP_pressure;BME280_temperature;BME280_humidity;BME280_pressure;Samples;Min_cycle;Max_cycle;Signal;HPM_P1;HPM_P2
2021/09/23 00:00:33;;;;;;;10.20;6.07;;;;;;;;;;5051866;28;20473;-80
2021/09/23 00:05:43;;;;;;;8.70;7.20;;;;;;;;;;5067332;28;20520;-78
2021/09/23 00:08:10;;;;;;;11.60;7.47;;;;;;;;;;5053965;28;20445;-79
2021/09/23 00:10:39;;;;;;;8.63;6.67;;;;;;;;;;5049185;28;20468;-78
2021/09/23 00:13:06;;;;;;;7.33;6.30;;;;;;;;;;5019638;28;20497;-78
2021/09/23 00:15:35;;;;;;;9.00;7.97;;;;;;;;;;5037863;28;20844;-81
2021/09/23 00:18:03;;;;;;;7.97;7.17;;;;;;;;;;5051773;28;20452;-78
2021/09/23 00:20:33;;;;;;;8.17;6.57;;;;;;;;;;5034452;28;20998;-79
2021/09/23 00:23:02;;;;;;;9.37;7.50;;;;;;;;;;5035034;28;20942;-80
2021/09/23 00:25:29;;;;;;;8.73;7.50;;;;;;;;;;5052558;28;20448;-78
2021/09/23 00:27:57;;;;;;;9.73;6.93;;;;;;;;;;5056695;28;20440;-79
2021/09/23 00:30:25;;;;;;;7.77;6.97;;;;;;;;;;5058228;28;20457;-78
2021/09/23 00:32:54;;;;;;;9.33;6.43;;;;;;;;;;5030950;28;20521;-81
2021/09/23 00:35:21;;;;;;;9.17;6.90;;;;;;;;;;5037083;28;20477;-79
2021/09/23 00:37:49;;;;;;;9.50;7.20;;;;;;;;;;5029465;28;20453;-79
2021/09/23 00:40:18;;;;;;;10.40;6.93;;;;;;;;;;5050926;28;20468;-79
2021/09/23 00:42:47;;;;;;;8.37;6.80;;;;;;;;;;5051144;28;20437;-80
2021/09/23 00:45:15;;;;;;;8.97;6.80;;;;;;;;;;5051328;28;20902;-79
2021/09/23 00:47:42;;;;;;;8.23;6.73;;;;;;;;;;5052288;28;20464;-79
2021/09/23 00:50:10;;;;;;;8.37;6.60;;;;;;;;;;5053592;28;20788;-79
2021/09/23 00:52:38;;;;;;;9.20;7.30;;;;;;;;;;5053379;28;20449;-80
2021/09/23 00:55:06;;;;;;;9.07;7.17;;;;;;;;;;5032686;28;20488;-79
2021/09/23 00:57:34;;;;;;;8.10;7.30;;;;;;;;;;5012790;28;20433;-81
2021/09/23 01:00:01;;;;;;;8.60;6.90;;;;;;;;;;5039069;28;20806;-79
2021/09/23 01:02:28;;;;;;;8.03;7.23;;;;;;;;;;5050751;28;20797;-78
2021/09/23 01:04:56;;;;;;;10.13;8.07;;;;;;;;;;5050962;28;20437;-78
2021/09/23 01:07:23;;;;;;;8.97;8.00;;;;;;;;;;5051263;28;20449;-78
2021/09/23 01:09:52;;;;;;;7.90;7.10;;;;;;;;;;5051261;28;20460;-78
2021/09/23 01:12:19;;;;;;;7.23;6.53;;;;;;;;;;5053168;28;20433;-80
2021/09/23 01:14:49;;;;;;;9.77;7.90;;;;;;;;;;5053030;28;20480;-78
2021/09/23 01:17:16;;;;;;;8.47;7.67;;;;;;;;;;5025668;28;20803;-80
2021/09/23 01:19:44;;;;;;;8.00;6.10;;;;;;;;;;5016697;28;20466;-80
2021/09/23 01:22:13;;;;;;;8.10;7.30;;;;;;;;;;5026102;28;20449;-79
2021/09/23 01:24:41;;;;;;;8.73;7.20;;;;;;;;;;5023313;28;20460;-80
2021/09/23 01:27:09;;;;;;;11.10;7.10;;;;;;;;;;5031042;28;20442;-80
2021/09/23 01:29:37;;;;;;;8.50;6.83;;;;;;;;;;5023405;28;20472;-79
2021/09/23 01:32:05;;;;;;;8.80;7.00;;;;;;;;;;5032208;28;20457;-78
2021/09/23 01:34:33;;;;;;;8.17;7.23;;;;;;;;;;5032723;28;20985;-78
2021/09/23 01:37:01;;;;;;;8.90;6.47;;;;;;;;;;5035873;28;20457;-79
2021/09/23 01:39:29;;;;;;;10.20;7.47;;;;;;;;;;5016296;28;20461;-78
2021/09/23 01:41:57;;;;;;;9.20;7.30;;;;;;;;;;5020303;28;20911;-79
2021/09/23 01:44:24;;;;;;;8.83;7.07;;;;;;;;;;5033251;28;20952;-78
2021/09/23 01:46:51;;;;;;;7.20;6.50;;;;;;;;;;5034041;28;20434;-79
2021/09/23 01:49:18;;;;;;;8.67;7.33;;;;;;;;;;5034153;28;20457;-79
2021/09/23 01:51:46;;;;;;;8.17;7.23;;;;;;;;;;5034311;28;20442;-77
2021/09/23 01:54:13;;;;;;;9.53;7.37;;;;;;;;;;5019473;28;20453;-80
2021/09/23 01:56:41;;;;;;;7.83;6.50;;;;;;;;;;5036336;28;20854;-79
2021/09/23 01:59:09;;;;;;;7.10;6.00;;;;;;;;;;5036342;28;20470;-80
2021/09/23 02:01:36;;;;;;;9.57;7.37;;;;;;;;;;5033410;28;20442;-80
2021/09/23 02:04:04;;;;;;;8.20;7.33;;;;;;;;;;5030186;28;20870;-78
2021/09/23 02:06:31;;;;;;;8.17;7.30;;;;;;;;;;5032365;28;20442;-78
2021/09/23 02:08:58;;;;;;;8.00;6.80;;;;;;;;;;5033720;28;20450;-80
2021/09/23 02:11:25;;;;;;;9.63;7.53;;;;;;;;;;5034413;28;20832;-78
2021/09/23 02:13:54;;;;;;;8.20;6.80;;;;;;;;;;5034021;28;20450;-79
2021/09/23 02:16:21;;;;;;;8.70;7.80;;;;;;;;;;5035198;28;20489;-78
2021/09/23 02:18:48;;;;;;;9.40;7.43;;;;;;;;;;5035655;28;20446;-78
2021/09/23 02:21:15;;;;;;;13.03;7.60;;;;;;;;;;5035600;28;20473;-80
2021/09/23 02:23:42;;;;;;;8.00;7.20;;;;;;;;;;5033090;28;20441;-78
2021/09/23 02:26:10;;;;;;;10.50;8.07;;;;;;;;;;5029309;28;20445;-79
2021/09/23 02:28:39;;;;;;;7.37;6.60;;;;;;;;;;5032488;28;20445;-79
2021/09/23 02:31:08;;;;;;;7.37;6.67;;;;;;;;;;5033039;28;20474;-78
2021/09/23 02:33:35;;;;;;;8.23;6.97;;;;;;;;;;5033632;28;20886;-79
2021/09/23 02:36:03;;;;;;;9.30;7.50;;;;;;;;;;5033833;28;20532;-79
2021/09/23 02:38:30;;;;;;;8.53;7.70;;;;;;;;;;5034842;28;20448;-80
2021/09/23 02:40:57;;;;;;;11.33;7.67;;;;;;;;;;5035447;28;20493;-77
2021/09/23 02:43:25;;;;;;;9.10;7.10;;;;;;;;;;5035611;28;20450;-80
2021/09/23 02:45:52;;;;;;;9.70;6.70;;;;;;;;;;5032103;28;20795;-79
2021/09/23 02:48:20;;;;;;;8.67;6.97;;;;;;;;;;5027781;28;20923;-80
2021/09/23 02:50:48;;;;;;;8.67;7.50;;;;;;;;;;5032068;28;21008;-78
2021/09/23 02:53:15;;;;;;;7.37;6.67;;;;;;;;;;5032758;28;20931;-80
2021/09/23 02:55:42;;;;;;;9.87;7.17;;;;;;;;;;5033024;28;20828;-80
2021/09/23 02:58:09;;;;;;;8.63;7.27;;;;;;;;;;5033147;28;20438;-78
2021/09/23 03:00:36;;;;;;;8.60;7.20;;;;;;;;;;5034067;28;21038;-78
2021/09/23 03:03:06;;;;;;;8.30;7.10;;;;;;;;;;5035234;28;20449;-78
2021/09/23 03:05:35;;;;;;;9.93;6.63;;;;;;;;;;5035175;28;20572;-79
2021/09/23 03:08:04;;;;;;;8.63;7.03;;;;;;;;;;5031832;28;20437;-80
2021/09/23 03:10:31;;;;;;;8.60;7.60;;;;;;;;;;5028784;28;20566;-80
2021/09/23 03:12:59;;;;;;;7.93;7.13;;;;;;;;;;5031364;28;20915;-79
2021/09/23 03:15:26;;;;;;;9.40;7.70;;;;;;;;;;5032801;28;20482;-81
2021/09/23 03:17:53;;;;;;;7.53;6.73;;;;;;;;;;5032968;28;20476;-80
2021/09/23 03:20:22;;;;;;;8.57;7.43;;;;;;;;;;5032651;28;20842;-80
2021/09/23 03:22:51;;;;;;;8.37;7.20;;;;;;;;;;5034085;28;20538;-80
2021/09/23 03:25:19;;;;;;;6.87;6.13;;;;;;;;;;5034531;28;20540;-78
2021/09/23 03:27:46;;;;;;;8.37;7.37;;;;;;;;;;5034757;28;20786;-79
2021/09/23 03:30:13;;;;;;;7.83;6.53;;;;;;;;;;5031083;28;20453;-80
2021/09/23 03:32:40;;;;;;;12.13;7.40;;;;;;;;;;5028224;28;20796;-79
2021/09/23 03:35:08;;;;;;;7.50;6.77;;;;;;;;;;5031328;28;20446;-81
2021/09/23 03:37:35;;;;;;;8.33;6.10;;;;;;;;;;5031912;28;20452;-80
2021/09/23 03:40:05;;;;;;;8.27;7.47;;;;;;;;;;5031956;28;20493;-81
2021/09/23 03:42:32;;;;;;;10.03;7.03;;;;;;;;;;5032573;28;20935;-81
2021/09/23 03:44:59;;;;;;;9.40;7.00;;;;;;;;;;5033629;28;20473;-79
2021/09/23 03:47:26;;;;;;;7.07;6.20;;;;;;;;;;5034384;28;20448;-79
2021/09/23 03:49:53;;;;;;;8.83;6.90;;;;;;;;;;5034099;28;20466;-79
2021/09/23 03:52:21;;;;;;;8.30;7.30;;;;;;;;;;5030694;28;20446;-80
2021/09/23 03:54:48;;;;;;;10.20;7.40;;;;;;;;;;5028220;28;21325;-80
2021/09/23 03:57:16;;;;;;;7.00;6.00;;;;;;;;;;5030763;28;20840;-81
2021/09/23 03:59:43;;;;;;;8.90;7.00;;;;;;;;;;5031497;28;20484;-77
2021/09/23 04:02:11;;;;;;;12.17;7.70;;;;;;;;;;5031929;28;20804;-79
2021/09/23 04:04:38;;;;;;;10.60;6.50;;;;;;;;;;5031986;28;20449;-79
2021/09/23 04:07:05;;;;;;;9.47;7.20;;;;;;;;;;5033024;28;20446;-78
2021/09/23 04:09:32;;;;;;;9.17;6.40;;;;;;;;;;5033946;28;20461;-79
2021/09/23 04:11:59;;;;;;;7.83;6.87;;;;;;;;;;5045825;28;20439;-80
2021/09/23 04:14:28;;;;;;;9.73;7.10;;;;;;;;;;5022557;28;20445;-80
2021/09/23 04:16:55;;;;;;;8.80;6.50;;;;;;;;;;5027512;28;20801;-80
2021/09/23 04:19:22;;;;;;;7.30;6.60;;;;;;;;;;5030225;28;20582;-80
2021/09/23 04:21:49;;;;;;;10.07;7.20;;;;;;;;;;5031458;28;20452;-80
2021/09/23 04:24:17;;;;;;;8.00;7.13;;;;;;;;;;5031700;28;20445;-78
2021/09/23 04:26:44;;;;;;;8.57;6.60;;;;;;;;;;5031777;28;20453;-78
2021/09/23 04:29:11;;;;;;;10.50;7.13;;;;;;;;;;5032858;28;20488;-80
2021/09/23 04:31:39;;;;;;;8.60;6.10;;;;;;;;;;5033509;28;20966;-82
2021/09/23 04:34:07;;;;;;;8.87;6.67;;;;;;;;;;5033366;28;20446;-78
2021/09/23 04:36:34;;;;;;;8.20;5.97;;;;;;;;;;5030198;28;20482;-78
2021/09/23 04:39:01;;;;;;;9.07;7.10;;;;;;;;;;5006817;28;20436;-78
2021/09/23 04:41:28;;;;;;;8.30;6.23;;;;;;;;;;5030101;28;20665;-78
2021/09/23 04:43:55;;;;;;;13.90;7.10;;;;;;;;;;5031042;28;20947;-80
2021/09/23 04:46:24;;;;;;;10.57;7.33;;;;;;;;;;5031201;28;20449;-80
2021/09/23 04:48:53;;;;;;;13.53;7.37;;;;;;;;;;5031364;28;20802;-80
2021/09/23 04:51:20;;;;;;;8.13;6.87;;;;;;;;;;5014528;28;20791;-77
2021/09/23 04:53:47;;;;;;;7.53;6.30;;;;;;;;;;5045276;28;20497;-78
2021/09/23 04:56:14;;;;;;;7.77;6.47;;;;;;;;;;5031954;28;20482;-80
2021/09/23 04:58:42;;;;;;;7.90;5.80;;;;;;;;;;5029848;28;20438;-79
2021/09/23 05:01:09;;;;;;;9.67;6.83;;;;;;;;;;5026779;28;20461;-80
2021/09/23 05:03:36;;;;;;;10.50;7.00;;;;;;;;;;5029999;28;20438;-81
2021/09/23 05:06:05;;;;;;;7.80;6.40;;;;;;;;;;5030853;28;20482;-79
2021/09/23 05:08:32;;;;;;;8.30;7.10;;;;;;;;;;5031090;28;20443;-81
2021/09/23 05:10:59;;;;;;;8.77;6.70;;;;;;;;;;5032855;28;20458;-81
2021/09/23 05:13:26;;;;;;;7.90;7.10;;;;;;;;;;5036364;28;20970;-79
2021/09/23 05:15:53;;;;;;;8.07;5.90;;;;;;;;;;5036902;28;20835;-80
2021/09/23 05:18:21;;;;;;;6.80;6.10;;;;;;;;;;5037153;28;20444;-79
2021/09/23 05:20:48;;;;;;;8.50;6.10;;;;;;;;;;5039069;28;20474;-78
2021/09/23 05:23:17;;;;;;;8.07;6.80;;;;;;;;;;5030594;28;20525;-78
2021/09/23 05:25:44;;;;;;;7.37;6.00;;;;;;;;;;5033799;28;20434;-78
2021/09/23 05:28:11;;;;;;;10.60;7.20;;;;;;;;;;5034382;28;20453;-78
2021/09/23 05:30:39;;;;;;;8.47;7.50;;;;;;;;;;5034760;28;20469;-78
2021/09/23 05:33:08;;;;;;;7.30;6.20;;;;;;;;;;5035028;28;20457;-78
2021/09/23 05:35:35;;;;;;;8.20;6.80;;;;;;;;;;5054583;28;20445;-78
2021/09/23 05:38:02;;;;;;;7.77;6.97;;;;;;;;;;5056910;28;20445;-78
2021/09/23 05:40:31;;;;;;;12.00;6.57;;;;;;;;;;5056512;28;20543;-78
2021/09/23 05:42:58;;;;;;;12.77;7.50;;;;;;;;;;5042454;28;20434;-79
2021/09/23 05:45:25;;;;;;;10.57;6.90;;;;;;;;;;5030941;28;20434;-79
2021/09/23 05:47:57;;;;;;;7.37;5.70;;;;;;;;;;5033646;28;20434;-78
2021/09/23 05:50:24;;;;;;;8.37;6.10;;;;;;;;;;5026029;28;20974;-79
2021/09/23 05:52:52;;;;;;;7.33;6.60;;;;;;;;;;5034246;28;20955;-80
2021/09/23 05:55:19;;;;;;;10.20;6.73;;;;;;;;;;5034350;28;20439;-77
2021/09/23 05:57:47;;;;;;;7.50;6.60;;;;;;;;;;5054670;28;20488;-78
2021/09/23 06:00:15;;;;;;;8.60;6.73;;;;;;;;;;5056336;28;20461;-80
2021/09/23 06:02:43;;;;;;;9.73;6.87;;;;;;;;;;5038510;28;20448;-78
2021/09/23 06:05:11;;;;;;;7.90;6.60;;;;;;;;;;5040001;28;20806;-79
2021/09/23 06:07:38;;;;;;;7.00;6.30;;;;;;;;;;5028121;28;20451;-79
2021/09/23 06:10:06;;;;;;;7.47;6.70;;;;;;;;;;5035406;28;20449;-80
2021/09/23 06:12:33;;;;;;;9.77;7.60;;;;;;;;;;5033046;28;20442;-80
2021/09/23 06:15:02;;;;;;;10.30;6.97;;;;;;;;;;5030553;28;20446;-80
2021/09/23 06:17:29;;;;;;;8.00;6.50;;;;;;;;;;5032315;28;20492;-80
2021/09/23 06:19:56;;;;;;;8.13;6.20;;;;;;;;;;5030310;28;20466;-79
2021/09/23 06:22:24;;;;;;;9.23;6.73;;;;;;;;;;5024657;28;20426;-84
2021/09/23 06:24:51;;;;;;;8.07;7.03;;;;;;;;;;5029615;28;22074;-76
2021/09/23 06:27:18;;;;;;;8.30;6.60;;;;;;;;;;5033746;28;20438;-79
2021/09/23 06:29:45;;;;;;;8.60;6.50;;;;;;;;;;5030931;28;20478;-76
2021/09/23 06:32:14;;;;;;;7.27;5.97;;;;;;;;;;5032390;28;20469;-80
2021/09/23 06:34:41;;;;;;;14.43;6.17;;;;;;;;;;5031474;28;20458;-81
2021/09/23 06:37:08;;;;;;;10.67;6.90;;;;;;;;;;5035393;28;20595;-76
2021/09/23 06:39:38;;;;;;;9.20;7.90;;;;;;;;;;5033089;28;20466;-78
2021/09/23 06:42:05;;;;;;;8.53;7.13;;;;;;;;;;5035240;28;20529;-78
2021/09/23 06:44:32;;;;;;;9.73;6.50;;;;;;;;;;5028833;28;20450;-79
2021/09/23 06:46:59;;;;;;;7.80;6.83;;;;;;;;;;5029723;28;20469;-78
2021/09/23 06:49:28;;;;;;;10.27;6.60;;;;;;;;;;5031291;28;20474;-77
2021/09/23 06:51:55;;;;;;;5.93;5.33;;;;;;;;;;5033164;28;20442;-78
2021/09/23 06:54:22;;;;;;;7.10;6.40;;;;;;;;;;5031470;28;20461;-78
2021/09/23 06:56:49;;;;;;;9.20;6.70;;;;;;;;;;5033657;28;20503;-76
2021/09/23 06:59:16;;;;;;;9.70;7.30;;;;;;;;;;5034523;28;20468;-78
2021/09/23 07:01:43;;;;;;;9.10;6.50;;;;;;;;;;5034913;28;20442;-79
2021/09/23 07:04:10;;;;;;;7.13;6.43;;;;;;;;;;5034936;28;20526;-79
2021/09/23 07:06:40;;;;;;;7.63;6.40;;;;;;;;;;5030094;28;20489;-77
2021/09/23 07:09:08;;;;;;;7.70;6.90;;;;;;;;;;5028745;28;20454;-76
2021/09/23 07:11:36;;;;;;;7.67;5.87;;;;;;;;;;5031306;28;20413;-78
2021/09/23 07:14:04;;;;;;;7.90;6.17;;;;;;;;;;5044984;28;20443;-76
2021/09/23 07:16:31;;;;;;;9.33;6.10;;;;;;;;;;5034783;28;20973;-76
2021/09/23 07:18:58;;;;;;;9.40;6.33;;;;;;;;;;5013609;28;20491;-79
2021/09/23 07:21:25;;;;;;;5.97;5.30;;;;;;;;;;5034929;28;20799;-80
2021/09/23 07:23:56;;;;;;;8.00;5.37;;;;;;;;;;5031456;28;20450;-82
2021/09/23 07:26:23;;;;;;;7.63;5.63;;;;;;;;;;5028286;28;20442;-75
2021/09/23 07:28:50;;;;;;;6.33;5.30;;;;;;;;;;5030503;28;20799;-77
2021/09/23 07:31:17;;;;;;;7.23;6.30;;;;;;;;;;5032224;28;20448;-77
2021/09/23 07:33:45;;;;;;;7.03;5.57;;;;;;;;;;5030216;28;20815;-77
2021/09/23 07:36:13;;;;;;;10.67;6.30;;;;;;;;;;5032690;28;20840;-81
2021/09/23 07:38:40;;;;;;;6.20;5.60;;;;;;;;;;5033233;28;20417;-80
2021/09/23 07:41:09;;;;;;;7.47;5.23;;;;;;;;;;5034409;28;20438;-80
2021/09/23 07:43:36;;;;;;;8.90;5.80;;;;;;;;;;5033171;28;20609;-78
2021/09/23 07:46:03;;;;;;;5.27;4.77;;;;;;;;;;5033343;28;20438;-78
2021/09/23 07:48:30;;;;;;;6.60;5.40;;;;;;;;;;5027080;28;20468;-80
2021/09/23 07:50:58;;;;;;;6.23;4.80;;;;;;;;;;5028173;28;20789;-77
2021/09/23 07:53:26;;;;;;;7.60;4.97;;;;;;;;;;5032003;28;20455;-77
2021/09/23 07:55:53;;;;;;;6.50;4.60;;;;;;;;;;5029867;28;20457;-76
2021/09/23 07:58:22;;;;;;;6.97;5.30;;;;;;;;;;5031500;28;20485;-73
2021/09/23 08:00:49;;;;;;;6.13;5.30;;;;;;;;;;5032792;28;20592;-76
2021/09/23 08:03:16;;;;;;;6.83;5.63;;;;;;;;;;5033954;28;20791;-76
2021/09/23 08:05:43;;;;;;;6.43;5.83;;;;;;;;;;5029611;28;20454;-73
2021/09/23 08:08:11;;;;;;;8.23;6.17;;;;;;;;;;5031484;28;20925;-74
2021/09/23 08:10:38;;;;;;;5.20;4.70;;;;;;;;;;5027848;28;20447;-75
2021/09/23 08:13:06;;;;;;;5.80;4.90;;;;;;;;;;5028465;28;20464;-75
2021/09/23 08:15:35;;;;;;;7.17;5.30;;;;;;;;;;5030397;28;20969;-74
2021/09/23 08:18:02;;;;;;;6.00;5.13;;;;;;;;;;5031436;28;20460;-74
2021/09/23 08:20:29;;;;;;;6.20;4.00;;;;;;;;;;5044788;28;20472;-74
2021/09/23 08:22:57;;;;;;;7.20;4.60;;;;;;;;;;5045602;28;20454;-76
2021/09/23 08:25:24;;;;;;;6.03;4.60;;;;;;;;;;5043413;28;20461;-75
2021/09/23 08:27:51;;;;;;;5.60;4.40;;;;;;;;;;5033779;28;20437;-76
2021/09/23 08:30:18;;;;;;;5.07;3.87;;;;;;;;;;5033468;28;20450;-75
2021/09/23 08:32:47;;;;;;;5.30;3.90;;;;;;;;;;5027793;28;20429;-75
2021/09/23 08:35:15;;;;;;;4.10;3.60;;;;;;;;;;5028133;28;20440;-76
2021/09/23 08:37:43;;;;;;;5.50;3.70;;;;;;;;;;5030486;28;20568;-76
2021/09/23 08:40:11;;;;;;;3.60;2.83;;;;;;;;;;5023541;28;20468;-76
2021/09/23 08:42:39;;;;;;;3.97;3.50;;;;;;;;;;5048438;28;20456;-77
2021/09/23 08:45:06;;;;;;;3.40;3.10;;;;;;;;;;5046365;28;20813;-75
2021/09/23 08:47:34;;;;;;;4.70;3.40;;;;;;;;;;5033431;28;20445;-75
2021/09/23 08:50:02;;;;;;;3.80;3.40;;;;;;;;;;5032850;28;20485;-76
2021/09/23 08:52:30;;;;;;;3.20;2.90;;;;;;;;;;5051012;28;20449;-77
2021/09/23 08:54:57;;;;;;;3.10;2.70;;;;;;;;;;5010845;28;21033;-76
2021/09/23 08:57:25;;;;;;;3.30;3.00;;;;;;;;;;5019748;28;20478;-75
2021/09/23 08:59:53;;;;;;;3.20;2.90;;;;;;;;;;5030510;28;20481;-76
2021/09/23 09:02:22;;;;;;;3.63;3.10;;;;;;;;;;5045232;28;20453;-77
2021/09/23 09:04:52;;;;;;;3.30;3.00;;;;;;;;;;5051012;28;21008;-78
2021/09/23 09:07:25;;;;;;;3.80;2.73;;;;;;;;;;5030878;28;20446;-78
2021/09/23 09:09:52;;;;;;;4.67;3.10;;;;;;;;;;5030910;28;20980;-82
2021/09/23 09:12:20;;;;;;;4.90;3.20;;;;;;;;;;5024919;28;20950;-80
2021/09/23 09:14:50;;;;;;;5.77;3.60;;;;;;;;;;5027751;28;20438;-82
2021/09/23 09:17:19;;;;;;;7.63;3.57;;;;;;;;;;5030746;28;20831;-83
2021/09/23 09:19:48;;;;;;;3.07;2.60;;;;;;;;;;5026244;28;20540;-83
2021/09/23 09:22:16;;;;;;;3.60;3.27;;;;;;;;;;5007428;28;20447;-84
2021/09/23 09:24:53;;;;;;;5.03;4.20;;;;;;;;;;5030945;28;20465;-76
2021/09/23 09:27:29;;;;;;;4.60;3.73;;;;;;;;;;5027686;28;20981;-77
2021/09/23 09:29:57;;;;;;;3.53;2.90;;;;;;;;;;5003720;28;20489;-76
2021/09/23 09:32:39;;;;;;;3.27;2.83;;;;;;;;;;5007604;28;20462;-76
2021/09/23 09:35:07;;;;;;;3.63;2.60;;;;;;;;;;5011063;28;20526;-74
2021/09/23 09:37:34;;;;;;;3.73;2.90;;;;;;;;;;5029617;28;20478;-75
2021/09/23 09:40:04;;;;;;;3.53;3.13;;;;;;;;;;5045533;28;20811;-76
2021/09/23 09:42:32;;;;;;;3.53;3.23;;;;;;;;;;5017736;28;20461;-75
2021/09/23 09:45:00;;;;;;;3.10;2.80;;;;;;;;;;5032923;28;20456;-74
2021/09/23 09:47:28;;;;;;;4.53;2.80;;;;;;;;;;5015133;28;20447;-75
2021/09/23 09:49:55;;;;;;;3.50;2.90;;;;;;;;;;5025462;28;20453;-74
2021/09/23 09:52:29;;;;;;;4.10;3.50;;;;;;;;;;5026171;28;20442;-75
2021/09/23 09:55:07;;;;;;;5.00;3.07;;;;;;;;;;5029259;28;20434;-76
2021/09/23 09:57:34;;;;;;;3.97;2.83;;;;;;;;;;5031538;28;21018;-75
2021/09/23 10:00:01;;;;;;;3.23;2.90;;;;;;;;;;5034182;28;20458;-76
2021/09/23 10:02:29;;;;;;;3.93;3.20;;;;;;;;;;5034485;28;20508;-79
2021/09/23 10:04:59;;;;;;;3.90;3.50;;;;;;;;;;5016567;28;20450;-79
2021/09/23 10:07:29;;;;;;;4.17;3.70;;;;;;;;;;5018980;28;20461;-77
2021/09/23 10:09:56;;;;;;;3.60;3.27;;;;;;;;;;5016600;28;20524;-80
2021/09/23 10:12:26;;;;;;;4.27;2.97;;;;;;;;;;5017191;28;22105;-77
2021/09/23 10:14:54;;;;;;;3.40;2.90;;;;;;;;;;5008707;28;20446;-78
2021/09/23 10:17:21;;;;;;;4.40;3.50;;;;;;;;;;5030746;28;20500;-75
2021/09/23 10:19:49;;;;;;;3.27;2.60;;;;;;;;;;5030858;28;20482;-73
2021/09/23 10:22:16;;;;;;;4.97;3.60;;;;;;;;;;5033250;28;20451;-74
2021/09/23 10:24:44;;;;;;;5.10;4.27;;;;;;;;;;5033462;28;20490;-74
2021/09/23 10:29:55;;;;;;;4.33;3.43;;;;;;;;;;5027702;28;20446;-75
2021/09/23 10:32:23;;;;;;;7.23;3.90;;;;;;;;;;5031756;28;20442;-77
2021/09/23 10:34:50;;;;;;;4.17;3.70;;;;;;;;;;5033724;28;20445;-76
2021/09/23 10:37:18;;;;;;;4.30;3.13;;;;;;;;;;5032761;28;20485;-77
2021/09/23 10:39:46;;;;;;;5.00;3.47;;;;;;;;;;5018968;28;20812;-75
2021/09/23 10:42:20;;;;;;;4.30;3.60;;;;;;;;;;5025265;28;20445;-80
2021/09/23 10:44:47;;;;;;;4.70;3.47;;;;;;;;;;5032313;28;20458;-79
2021/09/23 10:47:20;;;;;;;3.30;3.00;;;;;;;;;;5035567;28;20445;-76
2021/09/23 10:49:48;;;;;;;5.77;3.20;;;;;;;;;;5034910;28;20458;-76
2021/09/23 10:52:16;;;;;;;3.50;3.20;;;;;;;;;;5028424;28;20466;-77
2021/09/23 10:54:43;;;;;;;3.40;3.10;;;;;;;;;;5030655;28;20438;-76
2021/09/23 10:57:11;;;;;;;6.50;3.80;;;;;;;;;;5032022;28;20811;-78
2021/09/23 10:59:40;;;;;;;4.10;3.20;;;;;;;;;;5032629;28;20466;-77
2021/09/23 11:02:21;;;;;;;4.03;3.63;;;;;;;;;;5033284;28;20446;-76
2021/09/23 11:04:49;;;;;;;3.67;3.07;;;;;;;;;;5034037;28;20458;-76
2021/09/23 11:07:17;;;;;;;4.40;3.00;;;;;;;;;;5034262;28;20458;-77
2021/09/23 11:10:04;;;;;;;3.03;2.83;;;;;;;;;;5034184;28;20458;-75
2021/09/23 11:12:31;;;;;;;3.70;3.13;;;;;;;;;;5043540;28;20439;-76
2021/09/23 11:15:00;;;;;;;4.43;3.13;;;;;;;;;;5025057;28;20426;-76
2021/09/23 11:17:29;;;;;;;4.33;3.47;;;;;;;;;;5008551;28;20443;-75
2021/09/23 11:19:57;;;;;;;4.00;3.60;;;;;;;;;;5046038;28;20801;-76
2021/09/23 11:22:33;;;;;;;3.77;3.40;;;;;;;;;;5018439;28;20449;-74
2021/09/23 11:25:01;;;;;;;5.63;3.20;;;;;;;;;;5054370;28;20444;-76
2021/09/23 11:27:28;;;;;;;3.90;2.90;;;;;;;;;;5038600;28;20450;-75
2021/09/23 11:29:55;;;;;;;4.80;3.10;;;;;;;;;;5052516;28;20469;-77
2021/09/23 11:32:23;;;;;;;3.30;3.00;;;;;;;;;;5054652;28;20453;-77
2021/09/23 11:34:58;;;;;;;3.10;2.60;;;;;;;;;;5046591;28;20477;-76
2021/09/23 11:37:29;;;;;;;4.03;2.80;;;;;;;;;;5034013;28;20438;-76
2021/09/23 11:39:58;;;;;;;4.80;2.80;;;;;;;;;;5046534;28;20461;-77
2021/09/23 11:42:28;;;;;;;3.00;2.70;;;;;;;;;;5052060;28;20445;-76
2021/09/23 11:45:04;;;;;;;4.20;2.70;;;;;;;;;;5052387;28;20475;-77
2021/09/23 11:47:32;;;;;;;3.33;2.60;;;;;;;;;;5034837;28;20437;-77
2021/09/23 11:50:00;;;;;;;3.40;2.77;;;;;;;;;;5051316;28;20485;-76
2021/09/23 11:52:31;;;;;;;3.30;3.00;;;;;;;;;;5054303;28;20444;-76
2021/09/23 11:55:00;;;;;;;3.70;2.70;;;;;;;;;;5054194;28;20451;-76
2021/09/23 11:57:28;;;;;;;3.13;2.70;;;;;;;;;;5049605;28;20429;-73
2021/09/23 11:59:55;;;;;;;3.27;2.40;;;;;;;;;;5019063;28;20963;-77
2021/09/23 12:02:23;;;;;;;3.97;2.43;;;;;;;;;;5028332;28;20800;-78
2021/09/23 12:04:53;;;;;;;3.17;2.87;;;;;;;;;;5051634;28;20927;-80
2021/09/23 12:07:23;;;;;;;4.23;3.00;;;;;;;;;;5045199;28;20934;-80
2021/09/23 12:10:05;;;;;;;4.43;3.03;;;;;;;;;;5050481;28;20709;-80
2021/09/23 12:12:32;;;;;;;5.37;3.20;;;;;;;;;;5026506;28;20456;-81
2021/09/23 12:14:59;;;;;;;7.70;3.20;;;;;;;;;;5053230;28;20459;-80
2021/09/23 12:17:27;;;;;;;2.73;2.47;;;;;;;;;;5052299;28;20457;-80
2021/09/23 12:19:54;;;;;;;4.07;2.63;;;;;;;;;;5046872;28;20473;-79
2021/09/23 12:22:33;;;;;;;5.73;2.87;;;;;;;;;;5016847;28;20464;-79
2021/09/23 12:25:00;;;;;;;4.80;3.13;;;;;;;;;;5046956;28;20437;-81
2021/09/23 12:27:28;;;;;;;8.20;3.03;;;;;;;;;;5008200;28;20463;-79
2021/09/23 12:29:56;;;;;;;6.27;3.23;;;;;;;;;;5010698;28;20536;-81
2021/09/23 12:32:31;;;;;;;3.93;2.47;;;;;;;;;;5022602;28;20504;-81
2021/09/23 12:34:58;;;;;;;5.50;3.10;;;;;;;;;;5027925;28;20492;-80
2021/09/23 12:37:25;;;;;;;4.80;3.10;;;;;;;;;;5036190;28;20457;-81
2021/09/23 12:39:54;;;;;;;3.40;2.60;;;;;;;;;;5053432;28;20493;-80
2021/09/23 12:42:21;;;;;;;3.57;2.60;;;;;;;;;;5051956;28;20480;-80
2021/09/23 12:44:56;;;;;;;3.47;2.47;;;;;;;;;;5046631;28;20433;-79
2021/09/23 12:47:24;;;;;;;3.70;3.03;;;;;;;;;;5027093;28;20458;-81
2021/09/23 12:50:01;;;;;;;3.37;2.93;;;;;;;;;;5062677;28;20476;-81
2021/09/23 12:52:30;;;;;;;6.20;3.00;;;;;;;;;;5043897;28;20452;-81
2021/09/23 12:54:59;;;;;;;5.07;2.60;;;;;;;;;;5049940;28;20457;-81
2021/09/23 12:57:27;;;;;;;4.77;2.57;;;;;;;;;;5032650;28;20469;-81
2021/09/23 13:00:09;;;;;;;3.90;2.80;;;;;;;;;;5014708;28;20496;-81
2021/09/23 13:02:37;;;;;;;3.83;2.90;;;;;;;;;;5033914;28;20509;-81
2021/09/23 13:05:06;;;;;;;4.30;2.70;;;;;;;;;;5071044;28;20441;-81
2021/09/23 13:07:40;;;;;;;7.10;3.33;;;;;;;;;;5071280;28;20464;-81
2021/09/23 13:10:09;;;;;;;7.47;3.77;;;;;;;;;;5052324;28;20990;-81
2021/09/23 13:12:40;;;;;;;3.63;2.70;;;;;;;;;;5046462;28;20472;-80
2021/09/23 13:15:22;;;;;;;6.97;3.10;;;;;;;;;;5050851;28;20453;-81
2021/09/23 13:18:04;;;;;;;9.13;3.40;;;;;;;;;;5037800;28;20455;-83
2021/09/23 13:20:32;;;;;;;4.33;3.00;;;;;;;;;;5032022;28;20560;-83
2021/09/23 13:22:59;;;;;;;5.60;3.20;;;;;;;;;;5032965;28;20450;-81
2021/09/23 13:25:28;;;;;;;6.43;3.70;;;;;;;;;;5050629;28;20451;-81
2021/09/23 13:27:55;;;;;;;5.97;3.63;;;;;;;;;;5050888;28;20441;-80
2021/09/23 13:30:23;;;;;;;3.07;2.80;;;;;;;;;;5048405;28;20481;-84
2021/09/23 13:32:50;;;;;;;6.37;3.53;;;;;;;;;;5051185;28;20472;-84
2021/09/23 13:35:18;;;;;;;5.63;3.70;;;;;;;;;;5043320;28;20851;-83
2021/09/23 13:37:46;;;;;;;7.70;3.93;;;;;;;;;;5041251;28;20444;-83
2021/09/23 13:40:14;;;;;;;4.83;3.50;;;;;;;;;;5048661;28;20975;-85
2021/09/23 13:42:43;;;;;;;7.27;4.43;;;;;;;;;;5054325;28;20449;-77
2021/09/23 13:45:11;;;;;;;5.83;3.50;;;;;;;;;;5054694;28;20451;-76
2021/09/23 13:47:38;;;;;;;8.27;3.37;;;;;;;;;;5032455;28;20457;-74
2021/09/23 13:50:06;;;;;;;6.10;4.03;;;;;;;;;;5051845;28;20597;-77
2021/09/23 13:52:33;;;;;;;8.40;3.90;;;;;;;;;;5038789;28;20449;-78
2021/09/23 13:55:00;;;;;;;4.87;3.60;;;;;;;;;;5056495;28;20433;-83
2021/09/23 13:57:27;;;;;;;4.00;3.60;;;;;;;;;;5040764;28;20459;-78
2021/09/23 13:59:56;;;;;;;5.93;4.50;;;;;;;;;;5038982;28;20478;-73
2021/09/23 14:02:23;;;;;;;13.40;2.80;;;;;;;;;;5045560;28;20433;-78
2021/09/23 14:04:50;;;;;;;9.10;4.40;;;;;;;;;;5053747;28;20937;-78
2021/09/23 14:07:18;;;;;;;7.03;3.13;;;;;;;;;;5054110;28;20500;-80
2021/09/23 14:09:45;;;;;;;5.80;3.57;;;;;;;;;;5045164;28;20492;-78
2021/09/23 14:12:13;;;;;;;6.43;4.43;;;;;;;;;;5034564;28;20453;-80
2021/09/23 14:14:40;;;;;;;5.30;3.67;;;;;;;;;;5036199;28;20457;-77
2021/09/23 14:17:09;;;;;;;5.07;3.57;;;;;;;;;;5020760;28;20454;-79
2021/09/23 14:19:36;;;;;;;6.83;3.50;;;;;;;;;;5043531;28;20555;-79
2021/09/23 14:22:04;;;;;;;5.33;3.90;;;;;;;;;;5040065;28;20444;-79
2021/09/23 14:24:32;;;;;;;6.53;3.27;;;;;;;;;;5042532;28;20452;-80
2021/09/23 14:26:59;;;;;;;5.93;3.70;;;;;;;;;;5051665;28;20457;-79
2021/09/23 14:29:26;;;;;;;5.80;3.17;;;;;;;;;;5048651;28;20532;-82
2021/09/23 14:31:54;;;;;;;5.10;3.40;;;;;;;;;;5032833;28;20460;-82
2021/09/23 14:34:23;;;;;;;3.90;2.70;;;;;;;;;;5037394;28;20472;-82
2021/09/23 14:36:50;;;;;;;4.13;2.87;;;;;;;;;;5026696;28;20472;-80
2021/09/23 14:39:17;;;;;;;3.30;2.90;;;;;;;;;;5049074;28;20489;-83
2021/09/23 14:41:46;;;;;;;4.00;3.13;;;;;;;;;;5051705;28;20469;-78
2021/09/23 14:44:13;;;;;;;3.40;2.77;;;;;;;;;;5052521;28;20445;-75
2021/09/23 14:46:40;;;;;;;6.83;2.80;;;;;;;;;;5051882;28;20461;-76
2021/09/23 14:49:08;;;;;;;4.60;2.97;;;;;;;;;;5055444;28;20536;-76
2021/09/23 14:51:36;;;;;;;2.67;2.37;;;;;;;;;;5055430;28;20449;-77